createdAt,value
2019-05-01T00:02:04.504Z,36.15
2019-05-01T00:04:54.597Z,39.93
2019-05-01T00:07:30.203Z,38.53
2019-05-01T00:10:05.539Z,38.37
2019-05-01T00:12:37.346Z,36.83
2019-05-01T00:15:10.335Z,39.97
2019-05-01T00:17:41.681Z,37.20
2019-05-01T00:20:13.086Z,38.67
2019-05-01T00:22:45.250Z,36.90
2019-05-01T00:25:16.428Z,36.70
2019-05-01T00:27:47.598Z,35.93
2019-05-01T00:30:29.680Z,37.53
2019-05-01T00:32:54.701Z,37.67
2019-05-01T00:35:25.765Z,39.77
2019-05-01T00:37:56.674Z,37.60
2019-05-01T00:40:28.092Z,39.30
2019-05-01T00:43:00.532Z,38.43
2019-05-01T00:45:31.744Z,35.00
2019-05-01T00:48:03.818Z,39.40
2019-05-01T00:50:35.087Z,39.45
2019-05-01T00:53:09.203Z,42.83
2019-05-01T00:55:54.131Z,39.27
2019-05-01T00:58:49.658Z,39.67
2019-05-01T01:01:39.678Z,38.10
2019-05-01T01:04:12.544Z,40.05
2019-05-01T01:06:44.591Z,41.23
2019-05-01T01:09:15.948Z,41.40
2019-05-01T01:11:47.024Z,37.80
2019-05-01T01:14:18.244Z,40.30
2019-05-01T01:16:49.377Z,37.47
2019-05-01T01:19:21.772Z,36.13
2019-05-01T01:21:53.060Z,36.23
2019-05-01T01:24:25.331Z,34.17
2019-05-01T01:26:56.665Z,34.33
2019-05-01T01:29:27.599Z,35.53
2019-05-01T01:31:58.490Z,36.13
2019-05-01T01:34:29.380Z,38.67
2019-05-01T01:37:00.860Z,36.45
2019-05-01T01:39:31.879Z,38.10
2019-05-01T01:42:07.603Z,36.37
2019-05-01T01:44:51.006Z,36.73
2019-05-01T01:47:22.115Z,37.25
2019-05-01T01:49:54.580Z,41.70
2019-05-01T01:52:26.655Z,40.83
2019-05-01T01:54:57.658Z,34.33
2019-05-01T01:57:28.963Z,45.75
2019-05-01T02:00:00.799Z,41.13
2019-05-01T02:02:50.894Z,42.45
2019-05-01T02:05:34.446Z,37.10
2019-05-01T02:08:08.964Z,37.07
2019-05-01T02:10:43.070Z,48.37
2019-05-01T02:13:36.532Z,38.78
2019-05-01T02:16:20.177Z,41.15
2019-05-01T02:18:51.564Z,38.73
2019-05-01T02:21:24.491Z,39.07
2019-05-01T02:23:57.136Z,36.80
2019-05-01T02:26:29.697Z,38.53
2019-05-01T02:29:07.879Z,41.02
2019-05-01T02:31:45.003Z,36.60
2019-05-01T02:34:18.847Z,40.10
2019-05-01T02:36:52.143Z,40.33
2019-05-01T02:39:23.531Z,39.57
2019-05-01T02:41:57.646Z,38.00
2019-05-01T02:44:38.759Z,38.73
2019-05-01T02:47:13.940Z,39.47
2019-05-01T02:49:53.887Z,43.80
2019-05-01T02:52:28.688Z,40.05
2019-05-01T02:55:06.951Z,39.67
2019-05-01T02:57:39.962Z,42.23
2019-05-01T03:00:12.311Z,40.43
2019-05-01T03:02:44.374Z,43.97
2019-05-01T03:05:15.127Z,39.10
2019-05-01T03:07:47.491Z,40.73
2019-05-01T03:10:18.576Z,43.50
2019-05-01T03:12:52.954Z,42.50
2019-05-01T03:15:25.533Z,41.23
2019-05-01T03:18:33.656Z,43.90
2019-05-01T03:21:12.886Z,42.50
2019-05-01T03:23:58.264Z,40.87
2019-05-01T03:26:30.181Z,42.13
2019-05-01T03:29:01.136Z,39.38
2019-05-01T03:31:32.418Z,38.17
2019-05-01T03:34:06.593Z,39.07
2019-05-01T03:36:38.480Z,38.87
2019-05-01T03:39:13.210Z,44.17
2019-05-01T03:41:47.296Z,39.10
2019-05-01T03:44:20.133Z,39.70
2019-05-01T03:46:52.383Z,39.40
2019-05-01T03:49:24.350Z,41.53
2019-05-01T03:51:55.914Z,43.40
2019-05-01T03:54:28.047Z,42.47
2019-05-01T03:57:03.191Z,41.17
2019-05-01T03:59:34.268Z,41.57
2019-05-01T04:02:31.659Z,42.03
2019-05-01T04:04:47.508Z,44.77
2019-05-01T04:07:20.912Z,42.30
2019-05-01T04:09:51.828Z,44.23
2019-05-01T04:12:23.360Z,41.27
2019-05-01T04:14:54.085Z,42.47
2019-05-01T04:17:36.422Z,43.20
2019-05-01T04:20:08.109Z,44.60
2019-05-01T04:22:39.511Z,41.50
2019-05-01T04:25:11.093Z,44.80
2019-05-01T04:27:44.332Z,43.80
2019-05-01T04:30:23.369Z,40.92
2019-05-01T04:32:56.896Z,43.02
2019-05-01T04:35:50.605Z,42.43
2019-05-01T04:38:21.957Z,43.48
2019-05-01T04:40:53.099Z,45.63
2019-05-01T04:43:25.005Z,43.10
2019-05-01T04:45:56.329Z,42.08
2019-05-01T04:48:27.398Z,42.43
2019-05-01T04:50:59.368Z,46.30
2019-05-01T04:53:30.837Z,45.43
2019-05-01T04:56:02.631Z,43.50
2019-05-01T04:58:33.910Z,44.03
2019-05-01T05:01:08.692Z,42.43
2019-05-01T05:03:40.303Z,43.60
2019-05-01T05:06:15.290Z,41.50
2019-05-01T05:08:47.683Z,41.77
2019-05-01T05:11:24.903Z,44.73
2019-05-01T05:14:23.862Z,38.43
2019-05-01T05:17:01.757Z,44.43
2019-05-01T05:19:33.183Z,44.50
2019-05-01T05:22:07.014Z,44.67
2019-05-01T05:24:38.919Z,42.37
2019-05-01T05:27:11.258Z,48.97
2019-05-01T05:29:50.799Z,46.43
2019-05-01T05:32:25.246Z,43.80
2019-05-01T05:34:58.325Z,42.60
2019-05-01T05:37:37.517Z,43.23
2019-05-01T05:40:08.829Z,48.23
2019-05-01T05:42:39.997Z,43.97
2019-05-01T05:45:11.417Z,43.80
2019-05-01T05:47:42.664Z,45.00
2019-05-01T05:50:17.525Z,46.45
2019-05-01T05:52:56.428Z,46.23
2019-05-01T05:55:50.751Z,47.27
2019-05-01T05:58:37.169Z,45.13
2019-05-01T06:01:45.128Z,43.85
2019-05-01T06:04:41.721Z,45.45
2019-05-01T06:07:23.814Z,45.50
2019-05-01T06:10:18.488Z,47.20
2019-05-01T06:13:06.191Z,49.67
2019-05-01T06:15:49.265Z,47.90
2019-05-01T06:18:44.749Z,49.80
2019-05-01T06:21:22.364Z,46.37
2019-05-01T06:24:13.677Z,44.17
2019-05-01T06:26:45.182Z,45.83
2019-05-01T06:29:20.814Z,48.97
2019-05-01T06:31:58.843Z,44.13
2019-05-01T06:34:28.643Z,47.57
2019-05-01T06:36:59.673Z,47.95
2019-05-01T06:39:30.910Z,46.63
2019-05-01T06:42:14.434Z,44.87
2019-05-01T06:44:49.038Z,43.92
2019-05-01T06:47:44.966Z,45.60
2019-05-01T06:50:37.234Z,45.77
2019-05-01T06:53:13.278Z,45.50
2019-05-01T06:55:44.776Z,46.40
2019-05-01T06:58:20.550Z,43.40
2019-05-01T07:00:48.707Z,43.73
2019-05-01T07:03:20.549Z,44.60
2019-05-01T07:05:54.441Z,40.40
2019-05-01T07:08:29.462Z,44.33
2019-05-01T07:10:59.675Z,41.57
2019-05-01T07:13:35.584Z,39.75
2019-05-01T07:16:12.693Z,38.77
2019-05-01T07:18:43.646Z,40.70
2019-05-01T07:21:14.486Z,39.13
2019-05-01T07:23:47.792Z,41.80
2019-05-01T07:26:22.770Z,40.27
2019-05-01T07:28:57.631Z,40.20
2019-05-01T07:31:31.029Z,40.30
2019-05-01T07:34:01.892Z,41.30
2019-05-01T07:36:33.089Z,39.80
2019-05-01T07:39:09.814Z,38.60
2019-05-01T07:41:40.590Z,37.87
2019-05-01T07:44:37.830Z,37.43
2019-05-01T07:47:18.570Z,38.93
2019-05-01T07:49:54.727Z,37.85
2019-05-01T07:52:26.324Z,37.10
2019-05-01T07:54:57.756Z,36.77
2019-05-01T07:57:29.273Z,37.97
2019-05-01T08:00:03.670Z,39.10
2019-05-01T08:02:36.554Z,39.30
2019-05-01T08:05:11.595Z,36.25
2019-05-01T08:07:43.071Z,38.77
2019-05-01T08:10:13.899Z,54.73
2019-05-01T08:12:45.337Z,38.88
2019-05-01T08:15:16.367Z,35.40
2019-05-01T08:17:48.782Z,32.97
2019-05-01T08:20:31.712Z,35.13
2019-05-01T08:23:13.745Z,34.57
2019-05-01T08:25:44.835Z,35.30
2019-05-01T08:28:21.799Z,32.48
2019-05-01T08:31:23.110Z,31.87
2019-05-01T08:33:59.007Z,32.40
2019-05-01T08:36:30.708Z,32.20
2019-05-01T08:39:05.016Z,30.93
2019-05-01T08:41:34.191Z,29.70
2019-05-01T08:44:10.925Z,31.23
2019-05-01T08:46:57.239Z,31.47
2019-05-01T08:49:49.559Z,29.50
2019-05-01T08:52:18.549Z,31.07
2019-05-01T08:54:49.512Z,31.68
2019-05-01T08:57:20.698Z,28.93
2019-05-01T08:59:55.695Z,28.00
2019-05-01T09:02:24.909Z,29.10
2019-05-01T09:05:02.181Z,28.70
2019-05-01T09:07:28.401Z,28.07
2019-05-01T09:10:00.179Z,26.97
2019-05-01T09:12:37.121Z,29.40
2019-05-01T09:15:12.619Z,27.83
2019-05-01T09:17:45.947Z,28.83
2019-05-01T09:20:17.083Z,24.87
2019-05-01T09:22:52.811Z,26.70
2019-05-01T09:25:35.283Z,29.02
2019-05-01T09:28:22.058Z,27.97
2019-05-01T09:31:02.184Z,29.47
2019-05-01T09:33:32.439Z,28.53
2019-05-01T09:36:04.771Z,28.30
2019-05-01T09:38:37.611Z,29.20
2019-05-01T09:41:12.316Z,28.30
2019-05-01T09:43:45.133Z,26.90
2019-05-01T09:46:22.427Z,30.00
2019-05-01T09:48:56.402Z,28.90
2019-05-01T09:51:47.532Z,27.27
2019-05-01T09:54:23.749Z,31.17
2019-05-01T09:56:55.778Z,27.93
2019-05-01T09:59:33.773Z,27.23
2019-05-01T10:02:12.297Z,28.53
2019-05-01T10:04:45.808Z,28.00
2019-05-01T10:07:16.726Z,27.40
2019-05-01T10:09:52.196Z,27.33
2019-05-01T10:12:20.970Z,26.93
2019-05-01T10:14:56.925Z,26.40
2019-05-01T10:17:29.811Z,27.27
2019-05-01T10:20:07.910Z,27.00
2019-05-01T10:22:40.449Z,24.73
2019-05-01T10:25:13.454Z,26.03
2019-05-01T10:27:58.653Z,26.63
2019-05-01T10:30:51.783Z,27.17
2019-05-01T10:33:29.030Z,24.85
2019-05-01T10:36:31.282Z,26.02
2019-05-01T10:39:09.222Z,24.00
2019-05-01T10:41:46.685Z,25.27
2019-05-01T10:44:18.931Z,24.97
2019-05-01T10:46:49.743Z,26.27
2019-05-01T10:49:25.987Z,24.00
2019-05-01T10:51:57.934Z,23.75
2019-05-01T10:54:32.476Z,24.93
2019-05-01T10:57:04.666Z,23.02
2019-05-01T10:59:35.833Z,24.57
2019-05-01T11:02:15.792Z,24.17
2019-05-01T11:04:50.244Z,25.77
2019-05-01T11:07:22.258Z,24.07
2019-05-01T11:09:56.514Z,25.15
2019-05-01T11:12:28.235Z,25.07
2019-05-01T11:15:00.054Z,23.67
2019-05-01T11:17:32.716Z,26.00
2019-05-01T11:20:04.224Z,25.67
2019-05-01T11:22:35.416Z,26.17
2019-05-01T11:25:10.348Z,23.37
2019-05-01T11:27:45.227Z,27.63
2019-05-01T11:30:21.822Z,25.45
2019-05-01T11:33:08.774Z,28.07
2019-05-01T11:36:09.553Z,24.43
2019-05-01T11:38:56.750Z,26.57
2019-05-01T11:41:33.217Z,23.67
2019-05-01T11:44:06.443Z,22.43
2019-05-01T11:46:37.784Z,21.80
2019-05-01T11:49:12.710Z,21.20
2019-05-01T11:51:44.304Z,20.23
2019-05-01T11:54:19.237Z,19.77
2019-05-01T11:56:50.350Z,22.17
2019-05-01T11:59:23.516Z,21.67
2019-05-01T12:01:56.350Z,19.17
2019-05-01T12:04:35.173Z,20.75
2019-05-01T12:07:09.428Z,22.30
2019-05-01T12:09:41.322Z,21.57
2019-05-01T12:12:16.142Z,21.10
2019-05-01T12:14:52.932Z,19.23
2019-05-01T12:17:28.981Z,20.33
2019-05-01T12:19:59.897Z,21.47
2019-05-01T12:22:30.978Z,21.20
2019-05-01T12:25:11.422Z,22.17
2019-05-01T12:27:42.614Z,22.03
2019-05-01T12:30:14.732Z,25.07
2019-05-01T12:32:46.425Z,24.70
2019-05-01T12:35:22.908Z,23.87
2019-05-01T12:37:59.350Z,21.47
2019-05-01T12:40:31.151Z,22.63
2019-05-01T12:43:03.989Z,24.83
2019-05-01T12:45:39.906Z,22.00
2019-05-01T12:48:11.980Z,24.27
2019-05-01T12:50:44.267Z,25.17
2019-05-01T12:53:34.819Z,26.03
2019-05-01T12:56:32.082Z,26.27
2019-05-01T12:59:06.916Z,23.85
2019-05-01T13:01:42.821Z,27.30
2019-05-01T13:04:14.265Z,24.97
2019-05-01T13:06:49.418Z,24.10
2019-05-01T13:09:21.240Z,22.83
2019-05-01T13:11:54.674Z,24.90
2019-05-01T13:14:26.637Z,22.63
2019-05-01T13:16:57.593Z,22.87
2019-05-01T13:19:50.526Z,23.27
2019-05-01T13:22:31.534Z,23.25
2019-05-01T13:25:05.506Z,24.10
2019-05-01T13:27:46.321Z,23.20
2019-05-01T13:30:36.356Z,26.10
2019-05-01T13:33:09.026Z,23.80
2019-05-01T13:35:42.433Z,24.77
2019-05-01T13:38:21.546Z,22.53
2019-05-01T13:40:58.042Z,25.03
2019-05-01T13:43:39.359Z,23.00
2019-05-01T13:46:17.532Z,24.37
2019-05-01T13:48:50.361Z,25.00
2019-05-01T13:51:22.457Z,24.50
2019-05-01T13:53:53.811Z,23.20
2019-05-01T13:56:25.815Z,23.20
2019-05-01T13:58:57.411Z,24.63
2019-05-01T14:01:40.288Z,24.70
2019-05-01T14:04:13.499Z,27.10
2019-05-01T14:06:47.789Z,24.57
2019-05-01T14:09:25.973Z,25.97
2019-05-01T14:11:58.866Z,27.17
2019-05-01T14:14:30.356Z,27.80
2019-05-01T14:17:01.956Z,26.80
2019-05-01T14:19:35.704Z,25.93
2019-05-01T14:22:25.828Z,25.50
2019-05-01T14:24:58.275Z,24.60
2019-05-01T14:27:29.364Z,25.87
2019-05-01T14:30:00.767Z,23.93
2019-05-01T14:32:31.956Z,24.70
2019-05-01T14:35:03.327Z,22.60
2019-05-01T14:37:35.364Z,25.43
2019-05-01T14:40:13.773Z,24.87
2019-05-01T14:42:50.028Z,23.27
2019-05-01T14:45:23.568Z,22.67
2019-05-01T14:47:56.756Z,24.50
2019-05-01T14:50:27.433Z,22.90
2019-05-01T14:52:59.007Z,24.80
2019-05-01T14:55:37.080Z,23.17
2019-05-01T14:58:15.721Z,23.42
2019-05-01T15:00:54.668Z,23.03
2019-05-01T15:03:30.832Z,22.47
2019-05-01T15:06:10.355Z,22.85
2019-05-01T15:08:43.915Z,22.53
2019-05-01T15:11:16.594Z,21.87
2019-05-01T15:14:10.278Z,21.77
2019-05-01T15:17:08.538Z,23.37
2019-05-01T15:19:47.829Z,22.87
2019-05-01T15:22:27.326Z,23.20
2019-05-01T15:25:05.268Z,24.27
2019-05-01T15:27:37.916Z,22.27
2019-05-01T15:30:15.042Z,24.30
2019-05-01T15:32:46.299Z,24.43
2019-05-01T15:35:29.252Z,24.25
2019-05-01T15:38:09.020Z,25.33
2019-05-01T15:40:51.954Z,26.30
2019-05-01T15:43:29.140Z,24.27
2019-05-01T15:46:06.242Z,26.57
2019-05-01T15:48:49.371Z,25.90
2019-05-01T15:51:21.718Z,25.07
2019-05-01T15:53:52.605Z,24.67
2019-05-01T15:56:28.430Z,24.97
2019-05-01T15:59:06.412Z,24.23
2019-05-01T16:01:38.524Z,24.47
2019-05-01T16:04:09.808Z,23.73
2019-05-01T16:06:41.608Z,25.53
2019-05-01T16:09:13.988Z,26.47
2019-05-01T16:12:07.114Z,24.00
2019-05-01T16:14:38.947Z,25.73
2019-05-01T16:17:16.489Z,24.23
2019-05-01T16:19:47.083Z,24.10
2019-05-01T16:22:20.845Z,24.93
2019-05-01T16:24:51.938Z,24.47
2019-05-01T16:27:22.994Z,25.13
2019-05-01T16:30:01.670Z,24.18
2019-05-01T16:32:29.712Z,23.50
2019-05-01T16:35:01.987Z,21.93
2019-05-01T16:37:33.471Z,25.70
2019-05-01T16:40:29.666Z,22.50
2019-05-01T16:43:12.983Z,25.00
2019-05-01T16:46:21.206Z,22.57
2019-05-01T16:49:01.004Z,22.10
2019-05-01T16:51:38.784Z,25.48
2019-05-01T16:54:12.159Z,24.43
2019-05-01T16:56:44.664Z,25.87
2019-05-01T16:59:15.977Z,26.43
2019-05-01T17:01:57.082Z,31.40
2019-05-01T17:04:50.039Z,26.27
2019-05-01T17:07:46.996Z,26.77
2019-05-01T17:10:37.121Z,23.60
2019-05-01T17:13:10.165Z,26.07
2019-05-01T17:15:44.103Z,27.05
2019-05-01T17:18:16.596Z,26.43
2019-05-01T17:20:47.657Z,23.73
2019-05-01T17:23:20.518Z,26.80
2019-05-01T17:25:51.652Z,23.83
2019-05-01T17:28:23.930Z,24.77
2019-05-01T17:31:00.883Z,27.62
2019-05-01T17:33:32.803Z,26.37
2019-05-01T17:36:10.657Z,27.13
2019-05-01T17:38:49.978Z,26.33
2019-05-01T17:41:27.106Z,25.95
2019-05-01T17:43:59.120Z,26.80
2019-05-01T17:46:32.907Z,25.35
2019-05-01T17:49:09.152Z,26.87
2019-05-01T17:51:42.672Z,28.10
2019-05-01T17:54:20.695Z,27.50
2019-05-01T17:56:53.702Z,29.37
2019-05-01T17:59:24.719Z,30.30
2019-05-01T18:02:12.091Z,30.13
2019-05-01T18:05:17.116Z,28.37
2019-05-01T18:07:51.839Z,27.03
2019-05-01T18:10:22.859Z,29.03
2019-05-01T18:12:56.675Z,25.80
2019-05-01T18:15:33.795Z,29.53
2019-05-01T18:18:15.069Z,29.10
2019-05-01T18:20:47.362Z,27.45
2019-05-01T18:23:47.588Z,26.80
2019-05-01T18:26:43.463Z,29.53
2019-05-01T18:29:39.740Z,27.23
2019-05-01T18:32:52.494Z,28.23
2019-05-01T18:35:23.212Z,29.73
2019-05-01T18:38:06.138Z,28.45
2019-05-01T18:41:00.176Z,25.23
2019-05-01T18:43:32.258Z,33.20
2019-05-01T18:47:00.465Z,28.17
2019-05-01T18:53:19.292Z,25.70
2019-05-01T18:55:56.843Z,29.27
2019-05-01T18:58:32.534Z,29.83
2019-05-01T19:01:09.346Z,29.37
2019-05-01T19:03:42.481Z,27.13
2019-05-01T19:06:15.934Z,29.03
2019-05-01T19:08:51.932Z,28.17
2019-05-01T19:11:23.415Z,27.83
2019-05-01T19:13:54.769Z,28.53
2019-05-01T19:16:25.740Z,29.05
2019-05-01T19:18:57.102Z,27.13
2019-05-01T19:21:36.881Z,30.43
2019-05-01T19:26:55.580Z,32.75
2019-05-01T19:29:33.924Z,29.77
2019-05-01T19:32:14.552Z,32.13
2019-05-01T19:34:45.536Z,29.57
2019-05-01T19:37:21.965Z,30.17
2019-05-01T19:39:53.715Z,32.33
2019-05-01T19:42:23.634Z,34.43
2019-05-01T19:45:00.843Z,31.90
2019-05-01T19:47:32.128Z,28.93
2019-05-01T19:50:17.910Z,31.30
2019-05-01T19:52:57.937Z,32.42
2019-05-01T19:55:44.887Z,28.75
2019-05-01T19:58:16.800Z,28.77
2019-05-01T20:00:58.683Z,30.02
2019-05-01T20:03:36.302Z,35.33
2019-05-01T20:06:13.114Z,28.70
2019-05-01T20:08:46.607Z,31.10
2019-05-01T20:11:25.727Z,29.37
2019-05-01T20:13:57.075Z,30.87
2019-05-01T20:16:29.257Z,29.52
2019-05-01T20:19:06.615Z,30.20
2019-05-01T20:21:41.678Z,33.57
2019-05-01T20:24:12.427Z,33.58
2019-05-01T20:26:44.536Z,32.13
2019-05-01T20:29:17.660Z,29.60
2019-05-01T20:31:52.259Z,36.03
2019-05-01T20:34:30.752Z,29.85
2019-05-01T20:37:02.916Z,31.70
2019-05-01T20:39:35.071Z,30.47
2019-05-01T20:42:17.221Z,30.27
2019-05-01T20:45:03.457Z,30.03
2019-05-01T20:50:48.042Z,32.80
2019-05-01T20:53:27.057Z,33.20
2019-05-01T20:56:24.967Z,32.50
2019-05-01T20:58:57.687Z,31.42
2019-05-01T21:01:30.492Z,30.43
2019-05-01T21:04:16.099Z,29.90
2019-05-01T21:07:08.219Z,33.30
2019-05-01T21:09:47.721Z,37.37
2019-05-01T21:12:21.166Z,31.77
2019-05-01T21:14:53.708Z,28.62
2019-05-01T21:17:34.249Z,34.87
2019-05-01T21:20:21.125Z,34.87
2019-05-01T21:22:53.634Z,33.30
2019-05-01T21:25:28.553Z,33.67
2019-05-01T21:28:00.281Z,35.60
2019-05-01T21:30:38.591Z,31.17
2019-05-01T21:33:14.029Z,31.07
2019-05-01T21:35:45.318Z,29.77
2019-05-01T21:38:17.766Z,38.40
2019-05-01T21:40:48.655Z,33.57
2019-05-01T21:43:19.798Z,30.27
2019-05-01T21:45:53.465Z,41.35
2019-05-01T21:48:26.494Z,34.20
2019-05-01T21:51:03.415Z,33.73
2019-05-01T21:53:41.607Z,34.83
2019-05-01T21:56:16.127Z,31.13
2019-05-01T21:58:47.631Z,32.17
2019-05-01T22:01:20.896Z,36.27
2019-05-01T22:03:56.905Z,34.33
2019-05-01T22:06:28.108Z,34.73
2019-05-01T22:09:00.217Z,49.73
2019-05-01T22:11:33.129Z,48.00
2019-05-01T22:14:06.508Z,31.97
2019-05-01T22:16:37.823Z,33.53
2019-05-01T22:19:14.331Z,45.10
2019-05-01T22:22:22.321Z,48.67
2019-05-01T22:25:15.931Z,27.90
2019-05-01T22:27:56.629Z,32.28
2019-05-01T22:30:42.328Z,31.57
2019-05-01T22:33:13.294Z,30.73
2019-05-01T22:35:46.837Z,30.10
2019-05-01T22:38:17.527Z,37.90
2019-05-01T22:41:06.013Z,29.67
2019-05-01T22:43:29.266Z,42.30
2019-05-01T22:46:01.579Z,43.33
2019-05-01T22:48:34.139Z,37.23
2019-05-01T22:51:17.704Z,32.80
2019-05-01T22:53:54.362Z,40.40
2019-05-01T22:56:26.432Z,32.90
2019-05-01T22:59:00.172Z,30.83
2019-05-01T23:01:31.301Z,31.55
2019-05-01T23:04:05.762Z,37.77
2019-05-01T23:06:41.791Z,39.63
2019-05-01T23:09:17.193Z,36.97
2019-05-01T23:11:48.701Z,28.73
2019-05-01T23:14:23.690Z,31.50
2019-05-01T23:17:03.366Z,35.67
2019-05-01T23:19:36.242Z,33.50
2019-05-01T23:22:08.894Z,35.57
2019-05-01T23:24:40.096Z,35.23
2019-05-01T23:27:11.640Z,34.43
2019-05-01T23:29:42.698Z,34.00
2019-05-01T23:32:14.693Z,38.47
2019-05-01T23:34:45.560Z,38.07
2019-05-01T23:37:16.747Z,34.33
2019-05-01T23:39:47.916Z,32.47
2019-05-01T23:42:19.396Z,33.70
2019-05-01T23:44:50.134Z,31.63
2019-05-01T23:47:21.281Z,33.40
2019-05-01T23:49:52.670Z,32.73
2019-05-01T23:52:24.649Z,29.45
2019-05-01T23:54:56.049Z,30.60
2019-05-01T23:57:28.608Z,30.83
2019-05-01T23:59:59.487Z,29.03
